sensor_id;sensor_type;location;lat;lon;timestamp;pressure;altitude;pressure_sealevel;temperature;humidity
75650;BME280;64245;51.282;22.494;2023-11-19T00:00:45;99661.28;;;0.94;100.00
75650;BME280;64245;51.282;22.494;2023-11-19T00:03:31;99654.47;;;0.88;100.00
75650;BME280;64245;51.282;22.494;2023-11-19T00:05:59;99654.75;;;0.82;100.00
75650;BME280;64245;51.282;22.494;2023-11-19T00:08:25;99663.84;;;0.95;100.00
75650;BME280;64245;51.282;22.494;2023-11-19T00:10:52;99655.34;;;0.89;100.00
75650;BME280;64245;51.282;22.494;2023-11-19T00:13:20;99640.22;;;0.91;100.00
75650;BME280;64245;51.282;22.494;2023-11-19T00:15:46;99630.31;;;0.94;100.00
75650;BME280;64245;51.282;22.494;2023-11-19T00:18:13;99616.63;;;0.85;100.00
75650;BME280;64245;51.282;22.494;2023-11-19T00:20:42;99620.31;;;0.82;100.00
75650;BME280;64245;51.282;22.494;2023-11-19T00:23:10;99621.69;;;0.72;100.00
75650;BME280;64245;51.282;22.494;2023-11-19T00:25:36;99616.19;;;0.77;100.00
75650;BME280;64245;51.282;22.494;2023-11-19T00:28:02;99597.16;;;0.86;100.00
75650;BME280;64245;51.282;22.494;2023-11-19T00:30:27;99601.22;;;0.93;100.00
75650;BME280;64245;51.282;22.494;2023-11-19T00:32:56;99600.09;;;0.80;100.00
75650;BME280;64245;51.282;22.494;2023-11-19T00:35:24;99602.38;;;1.04;100.00
75650;BME280;64245;51.282;22.494;2023-11-19T00:37:50;99582.81;;;0.90;100.00
75650;BME280;64245;51.282;22.494;2023-11-19T00:40:16;99590.34;;;0.80;100.00
75650;BME280;64245;51.282;22.494;2023-11-19T00:42:43;99586.31;;;0.73;100.00
75650;BME280;64245;51.282;22.494;2023-11-19T00:45:09;99590.53;;;0.94;100.00
75650;BME280;64245;51.282;22.494;2023-11-19T00:47:36;99594.59;;;1.01;100.00
75650;BME280;64245;51.282;22.494;2023-11-19T00:50:02;99590.63;;;0.93;100.00
75650;BME280;64245;51.282;22.494;2023-11-19T00:52:28;99586.41;;;0.89;100.00
75650;BME280;64245;51.282;22.494;2023-11-19T00:54:54;99580.25;;;0.88;100.00
75650;BME280;64245;51.282;22.494;2023-11-19T00:57:20;99575.31;;;0.81;100.00
75650;BME280;64245;51.282;22.494;2023-11-19T00:59:46;99572.44;;;0.85;100.00
75650;BME280;64245;51.282;22.494;2023-11-19T01:02:13;99569.78;;;1.02;100.00
75650;BME280;64245;51.282;22.494;2023-11-19T01:04:39;99567.22;;;1.01;100.00
75650;BME280;64245;51.282;22.494;2023-11-19T01:07:05;99572.97;;;0.75;100.00
75650;BME280;64245;51.282;22.494;2023-11-19T01:09:32;99574.25;;;0.49;100.00
75650;BME280;64245;51.282;22.494;2023-11-19T01:12:00;99571.50;;;0.33;100.00
75650;BME280;64245;51.282;22.494;2023-11-19T01:14:27;99577.75;;;0.49;100.00
75650;BME280;64245;51.282;22.494;2023-11-19T01:16:53;99569.25;;;0.43;100.00
75650;BME280;64245;51.282;22.494;2023-11-19T01:19:21;99572.34;;;0.33;100.00
75650;BME280;64245;51.282;22.494;2023-11-19T01:21:48;99557.66;;;0.26;100.00
75650;BME280;64245;51.282;22.494;2023-11-19T01:24:14;99551.47;;;0.45;100.00
75650;BME280;64245;51.282;22.494;2023-11-19T01:26:41;99548.53;;;0.51;100.00
75650;BME280;64245;51.282;22.494;2023-11-19T01:29:14;99552.28;;;0.47;100.00
75650;BME280;64245;51.282;22.494;2023-11-19T01:31:45;99553.44;;;0.58;100.00
75650;BME280;64245;51.282;22.494;2023-11-19T01:34:12;99554.41;;;0.57;100.00
75650;BME280;64245;51.282;22.494;2023-11-19T01:36:38;99558.66;;;0.60;100.00
75650;BME280;64245;51.282;22.494;2023-11-19T01:39:05;99547.91;;;0.46;100.00
75650;BME280;64245;51.282;22.494;2023-11-19T01:41:37;99553.69;;;0.54;100.00
75650;BME280;64245;51.282;22.494;2023-11-19T01:44:06;99556.19;;;0.57;100.00
75650;BME280;64245;51.282;22.494;2023-11-19T01:46:32;99553.69;;;0.54;100.00
75650;BME280;64245;51.282;22.494;2023-11-19T01:48:59;99547.75;;;0.49;100.00
75650;BME280;64245;51.282;22.494;2023-11-19T01:51:25;99541.75;;;0.45;100.00
75650;BME280;64245;51.282;22.494;2023-11-19T01:53:52;99527.72;;;0.43;100.00
75650;BME280;64245;51.282;22.494;2023-11-19T01:56:18;99527.41;;;0.49;100.00
75650;BME280;64245;51.282;22.494;2023-11-19T01:58:45;99523.13;;;0.64;100.00
75650;BME280;64245;51.282;22.494;2023-11-19T02:01:11;99519.72;;;0.62;100.00
75650;BME280;64245;51.282;22.494;2023-11-19T02:03:38;99513.88;;;0.55;100.00
75650;BME280;64245;51.282;22.494;2023-11-19T02:06:04;99511.44;;;0.51;100.00
75650;BME280;64245;51.282;22.494;2023-11-19T02:08:30;99509.88;;;0.47;100.00
75650;BME280;64245;51.282;22.494;2023-11-19T02:10:56;99510.72;;;0.30;100.00
75650;BME280;64245;51.282;22.494;2023-11-19T02:13:24;99510.56;;;0.33;100.00
75650;BME280;64245;51.282;22.494;2023-11-19T02:15:50;99512.75;;;0.42;100.00
75650;BME280;64245;51.282;22.494;2023-11-19T02:18:21;99511.88;;;0.42;100.00
75650;BME280;64245;51.282;22.494;2023-11-19T02:20:50;99506.38;;;0.46;100.00
75650;BME280;64245;51.282;22.494;2023-11-19T02:23:18;99487.44;;;0.37;100.00
75650;BME280;64245;51.282;22.494;2023-11-19T02:26:02;99492.25;;;0.46;100.00
75650;BME280;64245;51.282;22.494;2023-11-19T02:28:28;99489.41;;;0.50;100.00
75650;BME280;64245;51.282;22.494;2023-11-19T02:30:54;99488.16;;;0.57;100.00
75650;BME280;64245;51.282;22.494;2023-11-19T02:33:20;99487.84;;;0.63;100.00
75650;BME280;64245;51.282;22.494;2023-11-19T02:35:46;99474.50;;;0.65;100.00
75650;BME280;64245;51.282;22.494;2023-11-19T02:38:11;99468.75;;;0.57;100.00
75650;BME280;64245;51.282;22.494;2023-11-19T02:40:41;99456.81;;;0.48;100.00
75650;BME280;64245;51.282;22.494;2023-11-19T02:43:07;99457.81;;;0.46;100.00
75650;BME280;64245;51.282;22.494;2023-11-19T02:45:34;99467.19;;;0.53;100.00
75650;BME280;64245;51.282;22.494;2023-11-19T02:48:00;99468.19;;;0.50;100.00
75650;BME280;64245;51.282;22.494;2023-11-19T02:50:28;99457.28;;;0.74;100.00
75650;BME280;64245;51.282;22.494;2023-11-19T02:52:55;99455.66;;;0.71;100.00
75650;BME280;64245;51.282;22.494;2023-11-19T02:55:24;99447.94;;;0.66;100.00
75650;BME280;64245;51.282;22.494;2023-11-19T02:57:51;99444.56;;;0.63;100.00
75650;BME280;64245;51.282;22.494;2023-11-19T03:00:20;99444.19;;;0.71;100.00
75650;BME280;64245;51.282;22.494;2023-11-19T03:02:51;99438.50;;;0.61;100.00
75650;BME280;64245;51.282;22.494;2023-11-19T03:05:31;99441.91;;;0.63;100.00
75650;BME280;64245;51.282;22.494;2023-11-19T03:07:57;99441.47;;;0.55;100.00
75650;BME280;64245;51.282;22.494;2023-11-19T03:10:22;99438.25;;;0.65;100.00
75650;BME280;64245;51.282;22.494;2023-11-19T03:12:49;99449.16;;;0.59;100.00
75650;BME280;64245;51.282;22.494;2023-11-19T03:15:15;99446.38;;;0.62;100.00
75650;BME280;64245;51.282;22.494;2023-11-19T03:17:42;99449.94;;;0.61;100.00
75650;BME280;64245;51.282;22.494;2023-11-19T03:20:11;99448.22;;;0.60;100.00
75650;BME280;64245;51.282;22.494;2023-11-19T03:22:41;99440.34;;;0.59;100.00
75650;BME280;64245;51.282;22.494;2023-11-19T03:25:07;99451.44;;;0.67;100.00
75650;BME280;64245;51.282;22.494;2023-11-19T03:27:37;99443.19;;;0.73;100.00
75650;BME280;64245;51.282;22.494;2023-11-19T03:30:08;99441.00;;;0.64;100.00
75650;BME280;64245;51.282;22.494;2023-11-19T03:32:35;99431.81;;;0.54;100.00
75650;BME280;64245;51.282;22.494;2023-11-19T03:35:01;99426.19;;;0.43;100.00
75650;BME280;64245;51.282;22.494;2023-11-19T03:37:30;99413.78;;;0.43;100.00
75650;BME280;64245;51.282;22.494;2023-11-19T03:39:57;99407.41;;;0.30;100.00
75650;BME280;64245;51.282;22.494;2023-11-19T03:42:26;99402.41;;;0.24;100.00
75650;BME280;64245;51.282;22.494;2023-11-19T03:44:53;99398.97;;;0.39;100.00
75650;BME280;64245;51.282;22.494;2023-11-19T03:47:19;99392.44;;;0.46;100.00
75650;BME280;64245;51.282;22.494;2023-11-19T03:49:49;99390.50;;;0.50;100.00
75650;BME280;64245;51.282;22.494;2023-11-19T03:52:16;99387.94;;;0.48;100.00
75650;BME280;64245;51.282;22.494;2023-11-19T03:54:42;99389.56;;;0.51;100.00
75650;BME280;64245;51.282;22.494;2023-11-19T03:57:08;99387.84;;;0.50;100.00
75650;BME280;64245;51.282;22.494;2023-11-19T03:59:36;99384.66;;;0.43;100.00
75650;BME280;64245;51.282;22.494;2023-11-19T04:02:02;99382.09;;;0.42;100.00
75650;BME280;64245;51.282;22.494;2023-11-19T04:04:28;99376.25;;;0.35;100.00
75650;BME280;64245;51.282;22.494;2023-11-19T04:06:57;99372.75;;;0.34;100.00
75650;BME280;64245;51.282;22.494;2023-11-19T04:09:23;99375.06;;;0.41;100.00
75650;BME280;64245;51.282;22.494;2023-11-19T04:11:49;99376.09;;;0.38;100.00
75650;BME280;64245;51.282;22.494;2023-11-19T04:14:15;99365.88;;;0.48;100.00
75650;BME280;64245;51.282;22.494;2023-11-19T04:16:46;99374.41;;;0.37;100.00
75650;BME280;64245;51.282;22.494;2023-11-19T04:19:12;99378.22;;;0.31;100.00
75650;BME280;64245;51.282;22.494;2023-11-19T04:21:41;99372.91;;;0.31;100.00
75650;BME280;64245;51.282;22.494;2023-11-19T04:24:10;99360.13;;;0.22;100.00
75650;BME280;64245;51.282;22.494;2023-11-19T04:26:41;99370.72;;;0.05;100.00
75650;BME280;64245;51.282;22.494;2023-11-19T04:29:09;99359.41;;;0.02;100.00
75650;BME280;64245;51.282;22.494;2023-11-19T04:31:36;99368.53;;;-0.04;100.00
75650;BME280;64245;51.282;22.494;2023-11-19T04:34:02;99359.25;;;0.05;100.00
75650;BME280;64245;51.282;22.494;2023-11-19T04:36:28;99370.03;;;0.19;100.00
75650;BME280;64245;51.282;22.494;2023-11-19T04:38:55;99377.44;;;0.12;100.00
75650;BME280;64245;51.282;22.494;2023-11-19T04:41:21;99366.81;;;-0.05;100.00
75650;BME280;64245;51.282;22.494;2023-11-19T04:43:47;99385.22;;;-0.02;100.00
75650;BME280;64245;51.282;22.494;2023-11-19T04:46:12;99382.50;;;-0.01;100.00
75650;BME280;64245;51.282;22.494;2023-11-19T04:48:38;99375.16;;;0.05;100.00
75650;BME280;64245;51.282;22.494;2023-11-19T04:51:07;99372.13;;;-0.05;100.00
75650;BME280;64245;51.282;22.494;2023-11-19T04:53:35;99370.00;;;0.02;100.00
75650;BME280;64245;51.282;22.494;2023-11-19T04:56:00;99363.78;;;0.03;100.00
75650;BME280;64245;51.282;22.494;2023-11-19T04:58:28;99363.47;;;0.09;100.00
75650;BME280;64245;51.282;22.494;2023-11-19T05:00:54;99357.63;;;0.02;100.00
75650;BME280;64245;51.282;22.494;2023-11-19T05:03:20;99343.63;;;0.00;100.00
75650;BME280;64245;51.282;22.494;2023-11-19T05:05:46;99350.31;;;0.07;100.00
75650;BME280;64245;51.282;22.494;2023-11-19T05:08:11;99332.00;;;0.03;100.00
75650;BME280;64245;51.282;22.494;2023-11-19T05:10:37;99340.50;;;0.09;100.00
75650;BME280;64245;51.282;22.494;2023-11-19T05:13:03;99346.88;;;0.05;100.00
75650;BME280;64245;51.282;22.494;2023-11-19T05:15:29;99341.28;;;0.11;100.00
75650;BME280;64245;51.282;22.494;2023-11-19T05:17:55;99335.38;;;0.06;100.00
75650;BME280;64245;51.282;22.494;2023-11-19T05:20:20;99325.31;;;0.13;100.00
75650;BME280;64245;51.282;22.494;2023-11-19T05:22:47;99324.31;;;0.15;100.00
75650;BME280;64245;51.282;22.494;2023-11-19T05:25:12;99317.16;;;0.17;100.00
75650;BME280;64245;51.282;22.494;2023-11-19T05:27:38;99319.03;;;0.15;100.00
75650;BME280;64245;51.282;22.494;2023-11-19T05:30:05;99308.44;;;0.15;100.00
75650;BME280;64245;51.282;22.494;2023-11-19T05:32:36;99297.75;;;0.17;100.00
75650;BME280;64245;51.282;22.494;2023-11-19T05:35:02;99304.66;;;0.19;100.00
75650;BME280;64245;51.282;22.494;2023-11-19T05:37:28;99298.63;;;0.17;100.00
75650;BME280;64245;51.282;22.494;2023-11-19T05:39:54;99288.97;;;0.16;100.00
75650;BME280;64245;51.282;22.494;2023-11-19T05:42:20;99295.63;;;0.23;100.00
75650;BME280;64245;51.282;22.494;2023-11-19T05:44:45;99290.59;;;0.19;100.00
75650;BME280;64245;51.282;22.494;2023-11-19T05:47:12;99283.97;;;0.10;100.00
75650;BME280;64245;51.282;22.494;2023-11-19T05:49:37;99283.41;;;0.21;100.00
75650;BME280;64245;51.282;22.494;2023-11-19T05:52:04;99277.78;;;0.27;100.00
75650;BME280;64245;51.282;22.494;2023-11-19T05:54:33;99267.44;;;0.22;100.00
75650;BME280;64245;51.282;22.494;2023-11-19T05:57:04;99273.44;;;0.26;100.00
75650;BME280;64245;51.282;22.494;2023-11-19T05:59:30;99266.75;;;0.19;100.00
75650;BME280;64245;51.282;22.494;2023-11-19T06:01:57;99271.88;;;0.22;100.00
75650;BME280;64245;51.282;22.494;2023-11-19T06:04:23;99266.69;;;0.03;100.00
75650;BME280;64245;51.282;22.494;2023-11-19T06:06:49;99267.69;;;0.18;100.00
75650;BME280;64245;51.282;22.494;2023-11-19T06:09:14;99270.25;;;0.19;100.00
75650;BME280;64245;51.282;22.494;2023-11-19T06:11:40;99258.59;;;0.06;100.00
75650;BME280;64245;51.282;22.494;2023-11-19T06:14:06;99278.91;;;0.06;100.00
75650;BME280;64245;51.282;22.494;2023-11-19T06:16:32;99258.75;;;0.03;100.00
75650;BME280;64245;51.282;22.494;2023-11-19T06:18:58;99268.72;;;0.15;100.00
75650;BME280;64245;51.282;22.494;2023-11-19T06:21:24;99267.88;;;-0.03;100.00
75650;BME280;64245;51.282;22.494;2023-11-19T06:23:50;99261.38;;;0.03;100.00
75650;BME280;64245;51.282;22.494;2023-11-19T06:26:18;99259.91;;;0.15;100.00
75650;BME280;64245;51.282;22.494;2023-11-19T06:28:43;99254.78;;;0.12;100.00
75650;BME280;64245;51.282;22.494;2023-11-19T06:31:10;99268.75;;;0.31;100.00
75650;BME280;64245;51.282;22.494;2023-11-19T06:33:36;99261.81;;;0.28;100.00
75650;BME280;64245;51.282;22.494;2023-11-19T06:36:02;99272.41;;;0.28;100.00
75650;BME280;64245;51.282;22.494;2023-11-19T06:38:27;99273.75;;;0.37;100.00
75650;BME280;64245;51.282;22.494;2023-11-19T06:40:53;99272.19;;;0.33;100.00
75650;BME280;64245;51.282;22.494;2023-11-19T06:43:19;99272.88;;;0.37;100.00
75650;BME280;64245;51.282;22.494;2023-11-19T06:45:45;99279.84;;;0.55;100.00
75650;BME280;64245;51.282;22.494;2023-11-19T06:48:10;99274.00;;;0.48;100.00
75650;BME280;64245;51.282;22.494;2023-11-19T06:50:36;99272.03;;;0.36;100.00
75650;BME280;64245;51.282;22.494;2023-11-19T06:53:02;99268.00;;;0.45;100.00
75650;BME280;64245;51.282;22.494;2023-11-19T06:55:28;99268.59;;;0.34;100.00
75650;BME280;64245;51.282;22.494;2023-11-19T06:57:54;99271.97;;;0.53;100.00
75650;BME280;64245;51.282;22.494;2023-11-19T07:00:20;99261.81;;;0.61;100.00
75650;BME280;64245;51.282;22.494;2023-11-19T07:02:45;99260.75;;;0.48;100.00
75650;BME280;64245;51.282;22.494;2023-11-19T07:05:11;99261.72;;;0.63;100.00
75650;BME280;64245;51.282;22.494;2023-11-19T07:07:38;99248.38;;;0.64;100.00
75650;BME280;64245;51.282;22.494;2023-11-19T07:10:06;99271.69;;;0.75;100.00
75650;BME280;64245;51.282;22.494;2023-11-19T07:12:34;99268.34;;;0.87;100.00
75650;BME280;64245;51.282;22.494;2023-11-19T07:15:02;99266.72;;;1.00;100.00
75650;BME280;64245;51.282;22.494;2023-11-19T07:17:30;99268.78;;;0.95;100.00
75650;BME280;64245;51.282;22.494;2023-11-19T07:19:56;99272.19;;;0.97;100.00
75650;BME280;64245;51.282;22.494;2023-11-19T07:22:25;99276.47;;;1.00;100.00
75650;BME280;64245;51.282;22.494;2023-11-19T07:24:51;99261.84;;;0.93;100.00
75650;BME280;64245;51.282;22.494;2023-11-19T07:27:19;99260.31;;;0.89;100.00
75650;BME280;64245;51.282;22.494;2023-11-19T07:29:45;99241.75;;;0.73;100.00
75650;BME280;64245;51.282;22.494;2023-11-19T07:32:11;99243.25;;;0.61;100.00
75650;BME280;64245;51.282;22.494;2023-11-19T07:34:37;99240.13;;;0.71;100.00
75650;BME280;64245;51.282;22.494;2023-11-19T07:37:03;99238.31;;;0.71;100.00
75650;BME280;64245;51.282;22.494;2023-11-19T07:39:30;99238.25;;;0.73;100.00
75650;BME280;64245;51.282;22.494;2023-11-19T07:41:55;99242.94;;;0.83;100.00
75650;BME280;64245;51.282;22.494;2023-11-19T07:44:22;99247.63;;;0.62;100.00
75650;BME280;64245;51.282;22.494;2023-11-19T07:46:47;99244.09;;;0.46;100.00
75650;BME280;64245;51.282;22.494;2023-11-19T07:49:14;99247.34;;;0.51;100.00
75650;BME280;64245;51.282;22.494;2023-11-19T07:51:39;99228.19;;;0.46;100.00
75650;BME280;64245;51.282;22.494;2023-11-19T07:54:06;99233.25;;;0.51;100.00
75650;BME280;64245;51.282;22.494;2023-11-19T07:56:33;99227.78;;;0.54;100.00
75650;BME280;64245;51.282;22.494;2023-11-19T07:59:02;99230.69;;;0.49;100.00
75650;BME280;64245;51.282;22.494;2023-11-19T08:01:27;99205.28;;;0.45;100.00
75650;BME280;64245;51.282;22.494;2023-11-19T08:03:53;99206.75;;;0.51;100.00
75650;BME280;64245;51.282;22.494;2023-11-19T08:06:19;99208.47;;;0.52;100.00
75650;BME280;64245;51.282;22.494;2023-11-19T08:08:46;99211.91;;;0.54;100.00
75650;BME280;64245;51.282;22.494;2023-11-19T08:11:13;99208.47;;;0.67;100.00
75650;BME280;64245;51.282;22.494;2023-11-19T08:13:39;99210.97;;;0.55;100.00
75650;BME280;64245;51.282;22.494;2023-11-19T08:16:06;99195.31;;;0.50;100.00
75650;BME280;64245;51.282;22.494;2023-11-19T08:18:32;99196.41;;;0.62;100.00
75650;BME280;64245;51.282;22.494;2023-11-19T08:20:58;99190.34;;;0.60;100.00
75650;BME280;64245;51.282;22.494;2023-11-19T08:23:25;99198.03;;;0.64;100.00
75650;BME280;64245;51.282;22.494;2023-11-19T08:25:51;99194.78;;;0.59;100.00
75650;BME280;64245;51.282;22.494;2023-11-19T08:28:18;99203.25;;;0.82;100.00
75650;BME280;64245;51.282;22.494;2023-11-19T08:30:43;99192.06;;;0.61;100.00
75650;BME280;64245;51.282;22.494;2023-11-19T08:33:10;99195.72;;;0.58;100.00
75650;BME280;64245;51.282;22.494;2023-11-19T08:35:35;99185.66;;;0.65;100.00
75650;BME280;64245;51.282;22.494;2023-11-19T08:38:02;99179.47;;;0.80;100.00
75650;BME280;64245;51.282;22.494;2023-11-19T08:40:28;99161.53;;;0.85;100.00
75650;BME280;64245;51.282;22.494;2023-11-19T08:42:56;99173.03;;;1.00;100.00
75650;BME280;64245;51.282;22.494;2023-11-19T08:45:22;99176.72;;;1.13;100.00
75650;BME280;64245;51.282;22.494;2023-11-19T08:47:48;99174.00;;;1.15;100.00
75650;BME280;64245;51.282;22.494;2023-11-19T08:50:14;99171.44;;;0.97;100.00
75650;BME280;64245;51.282;22.494;2023-11-19T08:52:40;99163.66;;;0.94;100.00
75650;BME280;64245;51.282;22.494;2023-11-19T08:55:06;99162.38;;;0.86;100.00
75650;BME280;64245;51.282;22.494;2023-11-19T08:57:33;99145.09;;;0.79;100.00
75650;BME280;64245;51.282;22.494;2023-11-19T08:59:58;99161.28;;;0.90;100.00
75650;BME280;64245;51.282;22.494;2023-11-19T09:02:25;99161.66;;;0.98;100.00
75650;BME280;64245;51.282;22.494;2023-11-19T09:04:50;99143.41;;;0.93;100.00
75650;BME280;64245;51.282;22.494;2023-11-19T09:07:17;99135.25;;;0.96;100.00
75650;BME280;64245;51.282;22.494;2023-11-19T09:09:43;99134.72;;;0.76;100.00
75650;BME280;64245;51.282;22.494;2023-11-19T09:12:09;99147.84;;;0.77;100.00
75650;BME280;64245;51.282;22.494;2023-11-19T09:14:34;99142.91;;;0.71;100.00
75650;BME280;64245;51.282;22.494;2023-11-19T09:17:00;99145.56;;;0.71;100.00
75650;BME280;64245;51.282;22.494;2023-11-19T09:19:26;99130.78;;;0.67;100.00
75650;BME280;64245;51.282;22.494;2023-11-19T09:21:53;99125.91;;;0.75;100.00
75650;BME280;64245;51.282;22.494;2023-11-19T09:24:18;99133.81;;;0.91;100.00
75650;BME280;64245;51.282;22.494;2023-11-19T09:26:44;99124.41;;;0.85;100.00
75650;BME280;64245;51.282;22.494;2023-11-19T09:29:10;99127.28;;;0.96;100.00
75650;BME280;64245;51.282;22.494;2023-11-19T09:31:40;99120.59;;;0.75;100.00
75650;BME280;64245;51.282;22.494;2023-11-19T09:34:06;99117.88;;;0.77;100.00
75650;BME280;64245;51.282;22.494;2023-11-19T09:36:32;99114.06;;;0.81;100.00
75650;BME280;64245;51.282;22.494;2023-11-19T09:38:57;99099.03;;;0.81;100.00
75650;BME280;64245;51.282;22.494;2023-11-19T09:41:26;99093.81;;;0.80;100.00
75650;BME280;64245;51.282;22.494;2023-11-19T09:43:53;99102.78;;;0.93;100.00
75650;BME280;64245;51.282;22.494;2023-11-19T09:46:19;99097.25;;;1.12;100.00
75650;BME280;64245;51.282;22.494;2023-11-19T09:48:46;99083.75;;;1.00;100.00
75650;BME280;64245;51.282;22.494;2023-11-19T09:51:14;99085.56;;;1.00;100.00
75650;BME280;64245;51.282;22.494;2023-11-19T09:53:39;99081.16;;;0.85;100.00
75650;BME280;64245;51.282;22.494;2023-11-19T09:56:06;99077.13;;;0.93;100.00
75650;BME280;64245;51.282;22.494;2023-11-19T09:58:33;99076.28;;;0.93;100.00
75650;BME280;64245;51.282;22.494;2023-11-19T10:01:00;99063.56;;;0.98;100.00
75650;BME280;64245;51.282;22.494;2023-11-19T10:03:27;99057.53;;;0.96;100.00
75650;BME280;64245;51.282;22.494;2023-11-19T10:05:57;99056.22;;;1.03;100.00
75650;BME280;64245;51.282;22.494;2023-11-19T10:08:23;99058.69;;;1.06;100.00
75650;BME280;64245;51.282;22.494;2023-11-19T10:10:49;99047.66;;;0.98;100.00
75650;BME280;64245;51.282;22.494;2023-11-19T10:13:17;99048.13;;;0.90;100.00
75650;BME280;64245;51.282;22.494;2023-11-19T10:15:44;99028.41;;;0.80;100.00
75650;BME280;64245;51.282;22.494;2023-11-19T10:18:09;99035.47;;;0.95;100.00
75650;BME280;64245;51.282;22.494;2023-11-19T10:20:36;99030.88;;;0.83;100.00
75650;BME280;64245;51.282;22.494;2023-11-19T10:23:02;99011.03;;;0.90;100.00
75650;BME280;64245;51.282;22.494;2023-11-19T10:25:29;99013.50;;;1.08;100.00
75650;BME280;64245;51.282;22.494;2023-11-19T10:27:56;99002.22;;;1.04;100.00
75650;BME280;64245;51.282;22.494;2023-11-19T10:30:23;99006.00;;;1.00;100.00
75650;BME280;64245;51.282;22.494;2023-11-19T10:33:05;99012.47;;;0.96;100.00
75650;BME280;64245;51.282;22.494;2023-11-19T10:35:36;99002.81;;;1.09;100.00
75650;BME280;64245;51.282;22.494;2023-11-19T10:38:16;98987.09;;;1.20;100.00
75650;BME280;64245;51.282;22.494;2023-11-19T10:40:42;98993.06;;;1.38;100.00
75650;BME280;64245;51.282;22.494;2023-11-19T10:43:08;98990.81;;;1.32;100.00
75650;BME280;64245;51.282;22.494;2023-11-19T10:45:35;98978.19;;;1.35;100.00
75650;BME280;64245;51.282;22.494;2023-11-19T10:48:03;98981.41;;;1.41;100.00
75650;BME280;64245;51.282;22.494;2023-11-19T10:50:36;98986.16;;;1.35;100.00
75650;BME280;64245;51.282;22.494;2023-11-19T10:53:04;98978.97;;;1.09;100.00
75650;BME280;64245;51.282;22.494;2023-11-19T10:55:32;98969.91;;;0.97;100.00
75650;BME280;64245;51.282;22.494;2023-11-19T10:58:00;98951.19;;;1.00;100.00
75650;BME280;64245;51.282;22.494;2023-11-19T11:00:29;98959.16;;;1.15;100.00
75650;BME280;64245;51.282;22.494;2023-11-19T11:03:02;98963.41;;;1.17;100.00
75650;BME280;64245;51.282;22.494;2023-11-19T11:05:32;98951.00;;;1.18;100.00
75650;BME280;64245;51.282;22.494;2023-11-19T11:08:01;98954.81;;;1.14;100.00
75650;BME280;64245;51.282;22.494;2023-11-19T11:10:28;98933.97;;;1.08;100.00
75650;BME280;64245;51.282;22.494;2023-11-19T11:12:56;98924.75;;;0.99;100.00
75650;BME280;64245;51.282;22.494;2023-11-19T11:15:28;98934.31;;;1.16;100.00
75650;BME280;64245;51.282;22.494;2023-11-19T11:17:59;98929.31;;;1.25;100.00
75650;BME280;64245;51.282;22.494;2023-11-19T11:20:31;98919.84;;;1.21;100.00
75650;BME280;64245;51.282;22.494;2023-11-19T11:23:44;98919.94;;;1.20;100.00
75650;BME280;64245;51.282;22.494;2023-11-19T11:26:48;98919.09;;;1.19;100.00
75650;BME280;64245;51.282;22.494;2023-11-19T11:30:01;98917.03;;;1.10;100.00
75650;BME280;64245;51.282;22.494;2023-11-19T11:35:27;98914.81;;;1.17;100.00
75650;BME280;64245;51.282;22.494;2023-11-19T11:38:14;98896.75;;;1.09;100.00
75650;BME280;64245;51.282;22.494;2023-11-19T11:40:41;98901.19;;;1.09;100.00
75650;BME280;64245;51.282;22.494;2023-11-19T11:49:03;98861.78;;;1.02;100.00
75650;BME280;64245;51.282;22.494;2023-11-19T11:54:25;98869.00;;;0.86;100.00
75650;BME280;64245;51.282;22.494;2023-11-19T11:57:11;98866.25;;;0.88;100.00
75650;BME280;64245;51.282;22.494;2023-11-19T11:59:42;98852.16;;;0.87;100.00
75650;BME280;64245;51.282;22.494;2023-11-19T12:02:09;98854.81;;;0.87;100.00
75650;BME280;64245;51.282;22.494;2023-11-19T12:04:36;98857.72;;;0.83;100.00
75650;BME280;64245;51.282;22.494;2023-11-19T12:07:12;98848.47;;;0.76;100.00
75650;BME280;64245;51.282;22.494;2023-11-19T12:09:41;98855.25;;;0.80;100.00
75650;BME280;64245;51.282;22.494;2023-11-19T12:12:21;98842.00;;;0.80;100.00
75650;BME280;64245;51.282;22.494;2023-11-19T12:15:07;98844.59;;;0.95;100.00
75650;BME280;64245;51.282;22.494;2023-11-19T12:17:38;98849.13;;;0.93;100.00
75650;BME280;64245;51.282;22.494;2023-11-19T12:20:06;98829.25;;;0.86;100.00
75650;BME280;64245;51.282;22.494;2023-11-19T12:22:41;98826.50;;;0.88;100.00
75650;BME280;64245;51.282;22.494;2023-11-19T12:25:09;98814.09;;;0.88;100.00
75650;BME280;64245;51.282;22.494;2023-11-19T12:27:35;98818.06;;;0.95;100.00
75650;BME280;64245;51.282;22.494;2023-11-19T12:30:02;98811.41;;;1.02;100.00
75650;BME280;64245;51.282;22.494;2023-11-19T12:32:42;98808.78;;;1.02;100.00
75650;BME280;64245;51.282;22.494;2023-11-19T12:35:09;98806.50;;;1.11;100.00
75650;BME280;64245;51.282;22.494;2023-11-19T12:37:41;98802.41;;;1.19;100.00
75650;BME280;64245;51.282;22.494;2023-11-19T12:40:14;98796.13;;;1.20;100.00
75650;BME280;64245;51.282;22.494;2023-11-19T12:42:40;98801.06;;;1.26;100.00
75650;BME280;64245;51.282;22.494;2023-11-19T12:45:07;98797.19;;;1.18;100.00
75650;BME280;64245;51.282;22.494;2023-11-19T12:47:36;98763.72;;;0.88;100.00
75650;BME280;64245;51.282;22.494;2023-11-19T12:50:03;98775.06;;;1.04;100.00
75650;BME280;64245;51.282;22.494;2023-11-19T12:52:30;98775.91;;;1.05;100.00
75650;BME280;64245;51.282;22.494;2023-11-19T12:54:56;98772.41;;;1.04;100.00
75650;BME280;64245;51.282;22.494;2023-11-19T12:57:37;98766.47;;;0.87;100.00
75650;BME280;64245;51.282;22.494;2023-11-19T13:00:04;98764.00;;;0.84;100.00
75650;BME280;64245;51.282;22.494;2023-11-19T13:02:47;98760.59;;;0.82;100.00
75650;BME280;64245;51.282;22.494;2023-11-19T13:05:22;98762.59;;;0.78;100.00